This is the latest recevied weather packets stored in our database for station/object IU0SZS-10. If no packets are shown the sender has not sent any weather packets the latest 10 day(s).
| Time | Temp. | Humidity | Pressure | Rain* | Wind** | Luminosity | Snow |
|---|---|---|---|---|---|---|---|
| 1777769087 | 10° C | 48% | 920.9 hPa | - | - | - | - |
| 1777768187 | 10.56° C | 47% | 921 hPa | - | - | - | - |
| 1777767286 | 10.56° C | 47% | 921.1 hPa | - | - | - | - |
| 1777766386 | 10.56° C | 47% | 921.2 hPa | - | - | - | - |
| 1777765485 | 11.11° C | 45% | 921.3 hPa | - | - | - | - |
| 1777764585 | 11.11° C | 44% | 921.3 hPa | - | - | - | - |
| 1777763685 | 11.11° C | 44% | 921.5 hPa | - | - | - | - |
| 1777762785 | 11.67° C | 41% | 921.6 hPa | - | - | - | - |
| 1777761885 | 11.67° C | 39% | 921.7 hPa | - | - | - | - |
| 1777760985 | 11.67° C | 40% | 921.8 hPa | - | - | - | - |
| 1777760084 | 12.22° C | 37% | 921.7 hPa | - | - | - | - |
| 1777759184 | 12.22° C | 38% | 921.6 hPa | - | - | - | - |
| 1777758284 | 12.22° C | 37% | 921.6 hPa | - | - | - | - |
| 1777757383 | 12.78° C | 36% | 921.5 hPa | - | - | - | - |
| 1777756483 | 12.22° C | 37% | 921.7 hPa | - | - | - | - |
| 1777755583 | 12.22° C | 39% | 921.9 hPa | - | - | - | - |
| 1777754682 | 12.22° C | 42% | 921.8 hPa | - | - | - | - |
| 1777753782 | 12.22° C | 39% | 921.9 hPa | - | - | - | - |
| 1777752882 | 12.22° C | 43% | 921.9 hPa | - | - | - | - |
| 1777751982 | 12.22° C | 44% | 921.9 hPa | - | - | - | - |
| 1777751082 | 12.22° C | 44% | 921.8 hPa | - | - | - | - |
| 1777750227 | 12.22° C | 44% | 921.7 hPa | - | - | - | - |
| 1777750182 | 12.22° C | 44% | 921.7 hPa | - | - | - | - |
| 1777749281 | 12.22° C | 44% | 921.6 hPa | - | - | - | - |
| 1777748381 | 12.78° C | 42% | 921.6 hPa | - | - | - | - |
* Rain since midnight (hover to see other rain measurements)
** Current wind speed in m/s (hover to see current wind gust speed)